Aviation Digital Data Service (ADDS)

Output produced by TAFs form (0955 UTC 23 April 2017)
found at http://www.aviationweather.gov/adds/tafs/
 
METAR text: RJFG 230900Z 09007KT 050V110 9999 FEW015 17/13 Q1017
Conditions at: RJFG (TANEGASHIMA AIRP, JP) observed 0900 UTC 23 April 2017
Temperature: 17.0°C (63°F)
Dewpoint: 13.0°C (55°F) [RH = 77%]
Pressure (altimeter): 30.03 inches Hg (1017.0 mb)
Winds: from the E (90 degrees) at 8 MPH (7 knots; 3.6 m/s)
Visibility: 6 or more miles (10+ km)
Ceiling: at least 12,000 feet AGL
Clouds: few clouds at 1500 feet AGL
Weather: no significant weather observed at this time